Time;durP1;ratioP1;P1;durP2;ratioP2;P2;SDS_P1;SDS_P2;PMS_P1;PMS_P2;Temp;Humidity;BMP_temperature;BMP_pressure;BME280_temperature;BME280_humidity;BME280_pressure;Samples;Min_cycle;Max_cycle;Signal;HPM_P1;HPM_P2
2022/05/30 04:01:06;;;;;;;5.55;2.80;;;9.80;99.90;;;;;;5623713;23;20472;-70
2022/05/30 04:03:33;;;;;;;5.45;2.85;;;9.80;99.90;;;;;;4973686;28;20208;-70
2022/05/30 04:06:01;;;;;;;10.20;2.90;;;9.80;99.90;;;;;;4968952;28;20275;-70
2022/05/30 04:08:28;;;;;;;4.57;3.15;;;9.80;99.90;;;;;;4973434;28;20295;-70
2022/05/30 04:10:55;;;;;;;5.25;2.65;;;9.90;99.90;;;;;;4967581;28;20317;-70
2022/05/30 04:13:22;;;;;;;4.88;2.65;;;9.90;99.90;;;;;;4955178;28;20205;-71
2022/05/30 04:15:48;;;;;;;7.38;3.15;;;9.90;99.90;;;;;;4949515;28;20670;-70
2022/05/30 04:18:17;;;;;;;2.50;2.30;;;9.90;99.90;;;;;;4954668;28;20662;-69
2022/05/30 04:20:46;;;;;;;2.72;2.53;;;9.90;99.90;;;;;;4944767;28;20234;-70
2022/05/30 04:23:13;;;;;;;5.18;2.20;;;10.00;99.90;;;;;;4951751;29;20201;-70
2022/05/30 04:25:39;;;;;;;3.33;2.28;;;10.00;99.90;;;;;;4947127;28;20205;-70
2022/05/30 04:28:07;;;;;;;3.53;2.95;;;10.00;99.90;;;;;;4950921;29;20284;-69
2022/05/30 04:30:34;;;;;;;5.25;2.47;;;10.00;99.90;;;;;;4953426;28;20634;-69
2022/05/30 04:33:00;;;;;;;3.03;2.55;;;10.00;99.90;;;;;;4954362;28;20271;-69
2022/05/30 04:35:28;;;;;;;2.28;1.80;;;10.00;99.90;;;;;;4953703;28;20741;-70
2022/05/30 04:37:55;;;;;;;6.82;2.65;;;10.10;99.90;;;;;;4946447;28;20663;-70
2022/05/30 04:40:21;;;;;;;4.63;2.22;;;10.10;99.90;;;;;;4937798;29;20201;-70
2022/05/30 04:42:48;;;;;;;8.88;2.30;;;10.20;99.90;;;;;;4954505;28;20206;-70
2022/05/30 04:45:16;;;;;;;2.20;2.10;;;10.20;99.90;;;;;;4953763;28;20586;-71
2022/05/30 04:47:43;;;;;;;7.65;2.45;;;10.20;99.90;;;;;;4954188;28;20209;-70
2022/05/30 04:50:14;;;;;;;3.83;1.90;;;10.20;99.90;;;;;;4952715;28;20701;-71
2022/05/30 04:52:42;;;;;;;2.08;2.00;;;10.20;99.90;;;;;;4950342;29;20227;-69
2022/05/30 04:55:10;;;;;;;2.88;2.72;;;10.30;99.90;;;;;;4941661;28;20206;-69
2022/05/30 04:57:41;;;;;;;2.13;2.03;;;10.30;99.90;;;;;;4953042;29;20205;-69
2022/05/30 05:00:09;;;;;;;7.80;2.85;;;10.40;99.90;;;;;;4953419;28;20223;-70
2022/05/30 05:02:36;;;;;;;6.32;2.42;;;10.40;99.90;;;;;;4943360;28;20205;-70
2022/05/30 05:05:02;;;;;;;3.92;2.80;;;10.40;99.90;;;;;;4951930;28;20682;-69
2022/05/30 05:07:36;;;;;;;6.97;2.28;;;10.40;99.90;;;;;;4946197;28;20245;-69
2022/05/30 05:10:06;;;;;;;2.33;2.03;;;10.40;99.90;;;;;;4952821;29;20205;-70
2022/05/30 05:12:33;;;;;;;3.63;2.55;;;10.40;99.90;;;;;;4945970;28;20259;-70
2022/05/30 05:15:00;;;;;;;3.75;2.78;;;10.40;99.90;;;;;;4953966;28;20213;-70
2022/05/30 05:17:27;;;;;;;6.13;2.78;;;10.50;99.90;;;;;;4953262;28;20241;-70
2022/05/30 05:19:53;;;;;;;4.05;2.40;;;10.50;99.90;;;;;;4953295;28;20574;-70
2022/05/30 05:22:20;;;;;;;5.68;2.97;;;10.60;99.90;;;;;;4943462;28;20217;-71
2022/05/30 05:24:46;;;;;;;3.90;3.08;;;10.60;99.90;;;;;;4951729;28;20205;-70
2022/05/30 05:27:17;;;;;;;5.20;2.75;;;10.60;99.90;;;;;;4952478;29;20287;-70
2022/05/30 05:29:43;;;;;;;3.63;1.98;;;10.70;99.90;;;;;;4952698;28;20301;-70
2022/05/30 05:32:10;;;;;;;3.10;2.20;;;10.70;99.90;;;;;;4954202;28;20291;-72
2022/05/30 05:34:37;;;;;;;3.53;1.80;;;10.70;99.90;;;;;;4953444;28;20213;-71
2022/05/30 05:37:04;;;;;;;3.35;2.38;;;10.70;99.90;;;;;;4952314;28;20271;-70
2022/05/30 05:39:31;;;;;;;2.38;2.03;;;10.80;99.90;;;;;;4952904;28;20209;-70
2022/05/30 05:41:57;;;;;;;4.68;2.67;;;10.80;99.90;;;;;;4953366;28;20321;-70
2022/05/30 05:44:25;;;;;;;8.35;2.70;;;10.80;99.90;;;;;;4945488;28;20265;-70
2022/05/30 05:46:56;;;;;;;4.13;2.33;;;10.90;99.90;;;;;;4952922;29;20220;-70
2022/05/30 05:49:23;;;;;;;2.45;2.35;;;10.90;99.90;;;;;;4938665;29;20221;-70
2022/05/30 05:51:52;;;;;;;2.90;2.70;;;11.00;99.90;;;;;;4946136;29;20224;-70
2022/05/30 05:54:22;;;;;;;4.07;2.00;;;11.00;99.90;;;;;;4937997;28;20237;-69
2022/05/30 05:56:49;;;;;;;3.17;2.58;;;11.10;99.90;;;;;;4946893;29;20212;-68
2022/05/30 05:59:15;;;;;;;3.85;2.10;;;11.10;99.90;;;;;;4952556;28;20236;-68
2022/05/30 06:01:44;;;;;;;3.95;2.10;;;11.20;99.90;;;;;;4949346;28;20284;-70
2022/05/30 06:04:11;;;;;;;3.07;2.07;;;11.30;99.90;;;;;;4938950;28;20851;-68
2022/05/30 06:06:38;;;;;;;1.70;1.60;;;11.50;99.90;;;;;;4945414;29;21012;-69
2022/05/30 06:09:06;;;;;;;4.70;2.57;;;11.60;99.90;;;;;;4939519;28;20494;-69
2022/05/30 06:11:33;;;;;;;2.17;2.07;;;11.70;99.90;;;;;;4943861;28;20921;-69
2022/05/30 06:14:00;;;;;;;4.30;2.30;;;11.80;99.90;;;;;;4952268;28;20464;-69
2022/05/30 06:16:29;;;;;;;3.43;1.93;;;11.90;99.90;;;;;;4952589;28;20519;-69
2022/05/30 06:18:59;;;;;;;2.17;1.97;;;12.10;99.90;;;;;;4948836;29;20487;-70
2022/05/30 06:21:28;;;;;;;3.60;2.03;;;12.20;99.90;;;;;;4942299;29;20522;-69
2022/05/30 06:23:55;;;;;;;3.10;1.87;;;12.30;99.90;;;;;;4943567;29;20463;-70
2022/05/30 06:26:23;;;;;;;2.20;2.10;;;12.30;99.90;;;;;;4952504;28;20464;-70
2022/05/30 06:28:50;;;;;;;2.37;2.17;;;12.40;99.90;;;;;;4951960;28;20558;-70
2022/05/30 06:31:18;;;;;;;3.23;2.10;;;12.40;99.90;;;;;;4941167;28;20485;-70
2022/05/30 06:33:45;;;;;;;2.63;1.90;;;12.50;99.90;;;;;;4946565;28;20469;-69
2022/05/30 06:36:15;;;;;;;8.63;2.13;;;12.40;99.90;;;;;;4947899;28;20519;-69
2022/05/30 06:38:42;;;;;;;2.30;1.70;;;12.50;99.90;;;;;;4952911;28;20460;-69
2022/05/30 06:41:14;;;;;;;5.17;2.10;;;12.50;99.90;;;;;;4951424;28;20572;-69
2022/05/30 06:43:41;;;;;;;3.90;2.20;;;12.50;99.90;;;;;;4949047;28;20476;-69
2022/05/30 06:46:09;;;;;;;2.27;1.77;;;12.50;99.90;;;;;;4952831;28;20473;-69
2022/05/30 06:48:36;;;;;;;4.60;2.10;;;12.50;99.90;;;;;;4950643;28;20542;-68
2022/05/30 06:51:04;;;;;;;2.80;2.57;;;12.50;99.90;;;;;;4946867;28;20556;-69
2022/05/30 06:53:33;;;;;;;3.13;1.73;;;12.60;99.90;;;;;;4946628;28;20469;-69
2022/05/30 06:56:00;;;;;;;3.20;1.93;;;12.70;99.90;;;;;;4946963;28;20472;-69
2022/05/30 06:58:27;;;;;;;1.97;1.83;;;12.60;99.90;;;;;;4952536;28;20461;-69
2022/05/30 07:00:59;;;;;;;2.30;2.10;;;12.60;99.90;;;;;;4945421;28;20523;-69
2022/05/30 07:03:26;;;;;;;2.20;2.00;;;12.60;99.90;;;;;;4953449;29;20949;-69
2022/05/30 07:05:53;;;;;;;2.50;2.00;;;12.60;99.90;;;;;;4953546;28;20926;-69
2022/05/30 07:08:20;;;;;;;1.97;1.70;;;12.70;99.90;;;;;;4951318;28;20503;-69
2022/05/30 07:10:47;;;;;;;3.73;1.70;;;12.80;99.90;;;;;;4948771;29;20910;-69
2022/05/30 07:13:15;;;;;;;5.20;1.90;;;12.90;99.90;;;;;;4951650;28;20527;-69
2022/05/30 07:15:42;;;;;;;1.60;1.60;;;13.00;99.90;;;;;;4952732;28;20835;-69
2022/05/30 07:18:11;;;;;;;2.53;1.40;;;13.10;99.90;;;;;;4952791;28;20464;-69
2022/05/30 07:20:38;;;;;;;5.00;2.00;;;13.20;99.90;;;;;;4962976;28;20456;-70
2022/05/30 07:23:05;;;;;;;1.37;1.27;;;13.20;99.90;;;;;;4965408;28;20209;-71
2022/05/30 07:25:35;;;;;;;1.73;1.63;;;13.20;99.90;;;;;;4962434;28;20465;-69
2022/05/30 07:28:04;;;;;;;2.20;1.70;;;13.20;99.90;;;;;;4959363;28;20489;-69
2022/05/30 07:30:31;;;;;;;1.30;1.30;;;13.40;99.90;;;;;;4954628;29;21017;-69
2022/05/30 07:32:58;;;;;;;4.40;1.70;;;13.50;99.90;;;;;;4959832;28;20524;-69
2022/05/30 07:35:25;;;;;;;2.33;1.57;;;13.70;99.90;;;;;;4956827;28;21049;-70
2022/05/30 07:37:52;;;;;;;1.57;1.47;;;14.20;99.90;;;;;;4970828;28;20465;-70
2022/05/30 07:40:19;;;;;;;2.30;2.07;;;14.50;99.90;;;;;;4964591;28;20460;-70
2022/05/30 07:42:47;;;;;;;2.43;1.57;;;14.50;99.90;;;;;;4949978;29;20536;-72
2022/05/30 07:45:16;;;;;;;1.23;1.13;;;14.20;99.90;;;;;;4942914;28;20473;-70
2022/05/30 07:47:42;;;;;;;2.00;1.33;;;14.00;99.90;;;;;;4956571;29;20540;-70
2022/05/30 07:50:10;;;;;;;1.60;1.50;;;13.90;99.90;;;;;;4953691;29;20539;-70
2022/05/30 07:52:37;;;;;;;2.67;1.70;;;13.90;99.90;;;;;;4954259;28;20485;-71
2022/05/30 07:55:04;;;;;;;2.43;1.50;;;13.80;99.90;;;;;;4955231;28;20938;-70
2022/05/30 08:00:18;;;;;;;1.10;1.10;;;13.80;99.90;;;;;;4950084;29;20505;-70
2022/05/30 08:02:45;;;;;;;2.53;1.17;;;13.70;99.90;;;;;;4935854;29;21059;-70
2022/05/30 08:05:14;;;;;;;1.47;1.47;;;13.70;99.90;;;;;;4952234;29;20519;-70
2022/05/30 08:07:43;;;;;;;1.40;1.30;;;13.80;99.90;;;;;;4953493;28;20966;-70
2022/05/30 08:10:10;;;;;;;2.23;1.37;;;13.80;99.90;;;;;;4954066;28;20484;-70
2022/05/30 08:12:37;;;;;;;4.17;1.40;;;13.60;99.90;;;;;;4954414;28;20829;-69
2022/05/30 08:15:04;;;;;;;5.20;1.33;;;13.60;99.90;;;;;;4954268;28;20465;-69
2022/05/30 08:17:33;;;;;;;2.30;1.10;;;13.70;99.90;;;;;;4955081;28;20531;-69
2022/05/30 08:20:01;;;;;;;1.30;1.10;;;13.70;99.90;;;;;;4952903;28;20461;-69
2022/05/30 08:22:28;;;;;;;2.50;1.23;;;13.60;99.90;;;;;;4951137;28;20580;-69
2022/05/30 08:24:55;;;;;;;1.10;1.10;;;13.70;99.90;;;;;;4951914;28;20466;-69
2022/05/30 08:27:22;;;;;;;1.10;1.10;;;13.70;99.90;;;;;;4954829;29;20488;-69
2022/05/30 08:29:49;;;;;;;1.47;1.20;;;13.90;99.90;;;;;;4955395;28;20484;-69
2022/05/30 08:32:16;;;;;;;1.30;1.20;;;14.20;99.90;;;;;;4952913;28;20489;-69
2022/05/30 08:34:44;;;;;;;4.37;1.23;;;14.40;99.90;;;;;;4948884;28;20535;-69
2022/05/30 08:37:11;;;;;;;1.47;1.00;;;14.40;99.90;;;;;;4951862;29;20465;-69
2022/05/30 08:42:28;;;;;;;1.90;1.60;;;14.60;99.90;;;;;;4941482;29;20472;-69
2022/05/30 08:44:55;;;;;;;1.17;1.17;;;14.60;99.90;;;;;;4953412;28;20457;-69
2022/05/30 08:47:38;;;;;;;1.67;1.57;;;14.70;99.90;;;;;;4949421;29;20465;-69
2022/05/30 08:50:13;;;;;;;1.90;1.40;;;14.80;99.90;;;;;;4952882;28;20491;-69
2022/05/30 08:52:50;;;;;;;1.70;1.27;;;15.00;99.90;;;;;;4953982;28;20813;-69
2022/05/30 08:55:28;;;;;;;1.03;1.00;;;15.30;99.90;;;;;;4953506;28;20842;-69
2022/05/30 08:58:02;;;;;;;1.43;1.13;;;15.40;99.90;;;;;;4935633;29;20565;-69
2022/05/30 09:00:32;;;;;;;3.60;1.50;;;15.40;99.90;;;;;;4941499;29;20476;-69
2022/05/30 09:03:06;;;;;;;1.00;1.00;;;15.30;99.90;;;;;;4953108;28;20460;-69
2022/05/30 09:05:40;;;;;;;2.07;1.33;;;15.20;99.90;;;;;;4951071;28;20544;-69
2022/05/30 09:08:13;;;;;;;0.67;0.60;;;15.30;99.90;;;;;;4947716;28;21130;-69
2022/05/30 09:10:44;;;;;;;1.73;1.10;;;15.30;99.90;;;;;;4941959;29;20490;-69
2022/05/30 09:13:18;;;;;;;2.20;0.80;;;15.50;99.90;;;;;;4953379;28;20495;-69
2022/05/30 09:15:50;;;;;;;1.03;0.73;;;15.50;99.90;;;;;;4949657;29;20576;-69
2022/05/30 09:18:21;;;;;;;1.90;1.30;;;15.30;99.90;;;;;;4937564;28;20789;-69
2022/05/30 09:20:49;;;;;;;0.90;0.90;;;15.40;99.90;;;;;;4941541;29;20493;-70
2022/05/30 09:23:20;;;;;;;1.20;1.17;;;15.40;99.90;;;;;;4945285;28;20468;-70
2022/05/30 09:26:00;;;;;;;2.33;0.80;;;15.30;99.90;;;;;;4953747;28;20524;-70
2022/05/30 09:28:29;;;;;;;2.53;0.90;;;15.10;99.90;;;;;;4953149;28;20464;-69
2022/05/30 09:31:03;;;;;;;1.03;1.03;;;15.10;99.90;;;;;;4947924;29;20519;-70
2022/05/30 09:33:32;;;;;;;1.33;1.33;;;15.30;99.90;;;;;;4952619;29;20937;-69
2022/05/30 09:36:17;;;;;;;0.60;0.60;;;15.30;99.90;;;;;;4954577;28;20469;-70
2022/05/30 09:38:47;;;;;;;0.90;0.90;;;15.30;99.90;;;;;;4952533;28;20465;-69
2022/05/30 09:41:18;;;;;;;0.70;0.70;;;15.10;99.90;;;;;;4951178;29;20535;-70
2022/05/30 09:43:50;;;;;;;1.37;1.37;;;15.20;99.90;;;;;;4946787;28;20469;-69
2022/05/30 09:46:23;;;;;;;5.90;1.60;;;15.30;99.90;;;;;;4953255;28;20464;-69
2022/05/30 09:49:06;;;;;;;1.80;1.60;;;15.10;99.90;;;;;;4952161;28;20468;-69
2022/05/30 09:51:38;;;;;;;1.37;1.27;;;14.80;99.90;;;;;;4952405;28;20483;-70
2022/05/30 09:54:05;;;;;;;1.80;1.60;;;14.50;99.90;;;;;;4953777;28;20468;-69
2022/05/30 09:56:37;;;;;;;3.63;1.60;;;14.30;99.90;;;;;;4946154;28;20501;-69
2022/05/30 09:59:06;;;;;;;1.40;1.30;;;14.20;99.90;;;;;;4952783;29;20460;-70
2022/05/30 10:01:37;;;;;;;2.03;1.93;;;14.20;99.90;;;;;;4933577;29;20493;-70
2022/05/30 10:04:34;;;;;;;1.47;1.43;;;14.20;99.90;;;;;;4933784;29;20487;-70
2022/05/30 10:07:07;;;;;;;1.80;1.70;;;14.30;99.90;;;;;;4947167;29;20500;-70
2022/05/30 10:09:34;;;;;;;2.57;1.50;;;14.50;99.90;;;;;;4947875;29;20491;-70
2022/05/30 10:12:01;;;;;;;1.60;1.50;;;14.50;99.90;;;;;;4949083;28;20518;-68
2022/05/30 10:14:34;;;;;;;2.73;1.33;;;14.70;99.90;;;;;;4951644;28;20481;-69
2022/05/30 10:17:12;;;;;;;1.20;1.20;;;14.70;99.90;;;;;;4949833;28;20480;-69
2022/05/30 10:19:42;;;;;;;1.00;1.00;;;14.60;99.90;;;;;;4952079;28;20575;-70
2022/05/30 10:28:20;;;;;;;1.07;0.87;;;14.70;99.90;;;;;;4950894;29;20480;-70
2022/05/30 10:30:57;;;;;;;1.10;1.10;;;14.70;99.90;;;;;;4943874;28;20565;-70
2022/05/30 10:33:37;;;;;;;2.83;1.40;;;14.80;99.90;;;;;;4938845;29;20483;-70
2022/05/30 10:36:14;;;;;;;1.50;0.93;;;14.70;99.90;;;;;;4950872;28;20500;-70
2022/05/30 10:38:55;;;;;;;1.30;1.30;;;14.70;99.90;;;;;;4952518;28;20461;-70
2022/05/30 10:41:26;;;;;;;1.17;1.17;;;14.80;99.90;;;;;;4939381;29;20484;-70
2022/05/30 10:43:59;;;;;;;0.83;0.83;;;14.90;99.90;;;;;;4952317;28;20464;-70
2022/05/30 10:46:35;;;;;;;1.90;1.80;;;14.80;99.90;;;;;;4949697;28;20496;-70
2022/05/30 10:49:05;;;;;;;0.90;0.90;;;14.50;99.90;;;;;;4952170;28;20464;-70
2022/05/30 10:51:40;;;;;;;1.80;1.50;;;14.40;99.90;;;;;;4949150;28;21021;-70
2022/05/30 10:54:13;;;;;;;1.67;1.57;;;14.50;99.90;;;;;;4948104;28;20476;-70
2022/05/30 10:56:41;;;;;;;2.13;1.37;;;14.40;99.90;;;;;;4951461;28;20465;-70
2022/05/30 10:59:17;;;;;;;2.10;1.93;;;14.40;99.90;;;;;;4950799;28;20646;-70
2022/05/30 11:01:47;;;;;;;1.70;1.63;;;14.50;99.90;;;;;;4950472;28;20492;-70
2022/05/30 11:04:23;;;;;;;1.57;1.47;;;14.40;99.90;;;;;;4947923;28;20472;-70
2022/05/30 11:06:52;;;;;;;1.77;1.50;;;14.20;99.90;;;;;;4950587;28;20476;-70
2022/05/30 11:09:31;;;;;;;1.43;1.30;;;14.10;99.90;;;;;;4952131;28;20475;-70
2022/05/30 11:12:06;;;;;;;1.90;1.80;;;14.20;99.90;;;;;;4954925;28;20480;-70
2022/05/30 11:14:38;;;;;;;4.30;1.60;;;14.20;99.90;;;;;;4954451;28;20460;-70
2022/05/30 11:17:12;;;;;;;1.50;1.50;;;14.10;99.90;;;;;;4954102;28;20469;-70
2022/05/30 11:19:55;;;;;;;2.03;2.00;;;14.10;99.90;;;;;;4952904;29;20461;-70
2022/05/30 11:22:34;;;;;;;2.40;2.30;;;14.10;99.90;;;;;;4951952;29;20520;-71
2022/05/30 11:25:04;;;;;;;3.27;1.50;;;14.00;99.90;;;;;;4954870;29;20523;-71
2022/05/30 11:27:42;;;;;;;2.03;1.97;;;13.80;99.90;;;;;;4953518;28;20464;-70
2022/05/30 11:30:36;;;;;;;1.27;1.27;;;13.70;99.90;;;;;;4952246;29;21198;-70
2022/05/30 11:33:20;;;;;;;1.30;1.30;;;13.80;99.90;;;;;;4952354;29;20531;-70
2022/05/30 11:35:55;;;;;;;2.30;1.47;;;13.80;99.90;;;;;;4948775;29;20491;-70
2022/05/30 11:38:44;;;;;;;1.17;1.17;;;14.00;99.90;;;;;;4955049;28;20617;-70
2022/05/30 11:41:24;;;;;;;1.20;1.10;;;14.30;99.90;;;;;;4953422;29;20484;-70
2022/05/30 11:44:11;;;;;;;1.83;1.73;;;14.50;99.90;;;;;;4948156;29;20555;-70
2022/05/30 11:46:52;;;;;;;1.40;1.40;;;14.60;99.90;;;;;;4952561;28;20473;-70
2022/05/30 11:49:28;;;;;;;1.17;1.17;;;14.70;99.90;;;;;;4955345;28;20455;-70
2022/05/30 11:52:04;;;;;;;1.57;1.47;;;14.80;99.90;;;;;;4952904;28;21067;-70
2022/05/30 11:54:44;;;;;;;2.10;1.47;;;14.70;99.90;;;;;;4955364;28;20575;-70
2022/05/30 11:57:20;;;;;;;1.00;1.00;;;14.60;99.90;;;;;;4951986;28;20542;-72
2022/05/30 12:00:13;;;;;;;1.53;1.53;;;14.50;99.90;;;;;;4951436;29;21024;-69
2022/05/30 12:03:25;;;;;;;1.87;1.80;;;14.40;99.90;;;;;;4950479;28;20829;-69
2022/05/30 12:06:19;;;;;;;1.70;1.70;;;14.10;99.90;;;;;;4911116;29;20546;-70
2022/05/30 12:09:10;;;;;;;2.10;1.53;;;13.90;99.90;;;;;;4953489;29;20465;-70
2022/05/30 12:12:07;;;;;;;1.40;1.40;;;13.80;99.90;;;;;;4954922;28;20488;-70
2022/05/30 12:15:07;;;;;;;3.90;2.07;;;13.70;99.90;;;;;;4958446;28;20508;-70
2022/05/30 12:24:30;;;;;;;2.20;1.87;;;13.80;99.90;;;;;;4935937;29;20469;-69
2022/05/30 12:27:03;;;;;;;2.10;1.90;;;13.90;99.90;;;;;;4935778;29;20507;-69
2022/05/30 12:29:48;;;;;;;2.20;2.00;;;13.80;99.90;;;;;;4935905;29;20572;-69
2022/05/30 12:32:37;;;;;;;3.03;1.80;;;13.80;99.90;;;;;;4935470;29;20485;-69
2022/05/30 12:35:21;;;;;;;1.70;1.70;;;13.70;99.90;;;;;;4949092;28;20560;-69
2022/05/30 12:37:49;;;;;;;2.10;2.00;;;13.60;99.90;;;;;;4953091;29;20566;-70
2022/05/30 12:40:32;;;;;;;2.40;2.27;;;13.60;99.90;;;;;;4954021;28;20479;-70
2022/05/30 12:43:06;;;;;;;1.80;1.80;;;13.50;99.90;;;;;;4954599;28;20597;-69
2022/05/30 12:45:40;;;;;;;3.30;2.10;;;13.50;99.90;;;;;;4952900;28;20520;-69
2022/05/30 12:48:19;;;;;;;2.43;2.27;;;13.40;99.90;;;;;;4954498;28;20853;-70
2022/05/30 12:51:12;;;;;;;2.57;2.33;;;13.40;99.90;;;;;;4952873;28;20497;-69
2022/05/30 12:54:20;;;;;;;2.30;2.20;;;13.30;99.90;;;;;;4953988;29;20460;-70
2022/05/30 12:57:35;;;;;;;2.67;2.50;;;13.30;99.90;;;;;;4954284;28;20455;-70
2022/05/30 13:00:15;;;;;;;2.43;1.97;;;13.40;99.90;;;;;;4953711;28;20836;-70
2022/05/30 13:03:12;;;;;;;2.10;2.00;;;13.40;99.90;;;;;;4953613;28;20471;-70
2022/05/30 13:06:10;;;;;;;1.27;1.27;;;13.50;99.90;;;;;;4952381;28;20561;-69
2022/05/30 13:09:05;;;;;;;1.40;1.30;;;13.60;99.90;;;;;;4945739;28;20947;-70
2022/05/30 13:12:05;;;;;;;1.57;1.50;;;13.70;99.90;;;;;;4934204;29;20604;-70
2022/05/30 13:14:44;;;;;;;1.10;1.10;;;13.80;99.90;;;;;;4934819;29;20475;-70
2022/05/30 13:17:31;;;;;;;1.80;1.00;;;14.00;99.90;;;;;;4934571;29;21034;-70
2022/05/30 13:20:04;;;;;;;0.90;0.90;;;14.20;99.90;;;;;;4933534;29;20885;-70
2022/05/30 13:22:35;;;;;;;0.77;0.73;;;14.30;99.90;;;;;;4935794;28;20493;-70
2022/05/30 13:25:04;;;;;;;1.50;1.40;;;14.40;99.90;;;;;;4953427;29;20460;-70
2022/05/30 13:27:31;;;;;;;1.50;1.30;;;14.40;99.90;;;;;;4953829;28;20862;-69
2022/05/30 13:30:02;;;;;;;0.83;0.83;;;14.40;99.90;;;;;;4953052;28;20468;-69
2022/05/30 13:32:30;;;;;;;3.37;1.43;;;14.50;99.90;;;;;;4953193;28;20500;-69
2022/05/30 13:35:00;;;;;;;1.90;1.10;;;14.60;99.90;;;;;;4953363;28;20472;-69
2022/05/30 13:37:31;;;;;;;0.80;0.73;;;14.70;99.90;;;;;;4953233;28;20465;-69
2022/05/30 13:40:01;;;;;;;0.70;0.70;;;14.80;99.90;;;;;;4952832;28;20472;-70
2022/05/30 13:42:31;;;;;;;3.10;1.27;;;14.80;99.90;;;;;;4953165;28;20484;-70
2022/05/30 13:45:01;;;;;;;1.23;1.10;;;14.90;99.90;;;;;;4953307;28;20973;-70
2022/05/30 13:47:28;;;;;;;1.27;1.27;;;15.00;99.90;;;;;;4952798;28;20488;-69
2022/05/30 13:49:56;;;;;;;1.10;1.00;;;15.00;99.90;;;;;;4950474;28;20535;-69
2022/05/30 13:52:26;;;;;;;0.87;0.87;;;14.90;99.90;;;;;;4952495;28;20997;-69
2022/05/30 13:54:56;;;;;;;1.20;1.17;;;15.00;99.90;;;;;;4953014;28;20464;-70
2022/05/30 13:57:27;;;;;;;0.90;0.90;;;15.20;99.90;;;;;;4945686;28;20512;-69
2022/05/30 13:59:57;;;;;;;1.37;1.33;;;15.00;99.90;;;;;;4952470;29;20461;-69
2022/05/30 14:02:27;;;;;;;1.50;1.40;;;15.00;99.90;;;;;;4952475;28;20981;-69
2022/05/30 14:05:00;;;;;;;1.27;1.27;;;15.00;99.90;;;;;;4952637;28;20575;-69
2022/05/30 14:07:32;;;;;;;1.17;1.00;;;15.10;99.90;;;;;;4952746;28;20476;-69
2022/05/30 14:10:01;;;;;;;0.97;0.90;;;15.10;99.90;;;;;;4952095;28;20469;-69
2022/05/30 14:12:31;;;;;;;1.23;1.10;;;15.20;99.90;;;;;;4952766;28;20551;-69
2022/05/30 14:15:13;;;;;;;0.70;0.70;;;15.30;99.90;;;;;;4952905;28;20468;-69
2022/05/30 14:17:40;;;;;;;1.30;1.20;;;15.10;99.90;;;;;;4952719;28;20465;-70
2022/05/30 14:20:12;;;;;;;1.50;0.97;;;15.00;99.90;;;;;;4951885;28;20527;-69
2022/05/30 14:22:40;;;;;;;1.33;1.33;;;14.90;99.90;;;;;;4952169;28;20477;-69
2022/05/30 14:25:22;;;;;;;2.93;1.00;;;14.90;99.90;;;;;;4952731;28;21036;-69
2022/05/30 14:27:51;;;;;;;1.40;1.30;;;14.90;99.90;;;;;;4952533;28;20897;-69
2022/05/30 14:30:20;;;;;;;1.33;1.20;;;15.00;99.90;;;;;;4952000;28;20559;-70
2022/05/30 14:32:50;;;;;;;1.50;1.50;;;15.00;99.90;;;;;;4952088;28;20563;-69
2022/05/30 14:35:26;;;;;;;1.50;1.40;;;15.00;99.90;;;;;;4952192;28;20536;-70
2022/05/30 14:38:03;;;;;;;1.67;1.60;;;15.00;99.90;;;;;;4952144;28;20468;-70
2022/05/30 14:40:35;;;;;;;1.30;1.30;;;15.00;99.90;;;;;;4951865;28;20464;-70
2022/05/30 14:43:22;;;;;;;1.57;1.57;;;15.00;99.90;;;;;;4952911;28;20555;-69
2022/05/30 14:46:01;;;;;;;1.30;1.20;;;15.00;99.90;;;;;;4954334;28;20468;-68
2022/05/30 14:48:29;;;;;;;2.97;1.37;;;15.00;99.90;;;;;;4956168;29;20460;-68
2022/05/30 14:51:06;;;;;;;1.60;1.50;;;14.80;99.90;;;;;;4954708;29;20488;-68
2022/05/30 14:53:37;;;;;;;1.10;1.10;;;14.70;99.90;;;;;;4955329;28;20472;-68
2022/05/30 14:56:07;;;;;;;1.03;1.00;;;14.70;99.90;;;;;;4955924;28;20466;-69
2022/05/30 14:58:42;;;;;;;1.07;0.90;;;14.70;99.90;;;;;;4956293;28;20519;-69
2022/05/30 15:01:10;;;;;;;1.40;1.30;;;14.70;99.90;;;;;;4955704;28;20496;-69
2022/05/30 15:06:24;;;;;;;1.03;1.03;;;14.50;99.90;;;;;;4948567;28;20572;-69
2022/05/30 15:08:53;;;;;;;1.20;1.20;;;14.40;99.90;;;;;;4955721;28;20456;-71
2022/05/30 15:11:24;;;;;;;1.00;1.00;;;14.40;99.90;;;;;;4954892;28;20933;-69
2022/05/30 15:13:54;;;;;;;1.23;1.00;;;14.50;99.90;;;;;;4955020;28;20507;-69
2022/05/30 15:16:21;;;;;;;1.30;1.20;;;14.40;99.90;;;;;;4954829;29;20480;-69
2022/05/30 15:18:48;;;;;;;1.60;0.80;;;14.30;99.90;;;;;;4955613;28;20523;-70
2022/05/30 15:21:21;;;;;;;0.83;0.83;;;14.20;99.90;;;;;;4954084;28;20488;-70
2022/05/30 15:23:49;;;;;;;0.80;0.80;;;14.20;99.90;;;;;;4948632;28;20465;-70
2022/05/30 15:26:16;;;;;;;1.23;0.90;;;14.20;99.90;;;;;;4954306;28;20479;-70
2022/05/30 15:28:43;;;;;;;2.30;1.30;;;14.30;99.90;;;;;;4956694;28;20523;-69
2022/05/30 15:31:13;;;;;;;1.40;1.30;;;14.30;99.90;;;;;;4955157;28;20499;-69
2022/05/30 15:33:40;;;;;;;3.10;2.90;;;14.40;99.90;;;;;;4954139;28;20504;-70
2022/05/30 15:36:07;;;;;;;6.37;4.37;;;14.50;99.90;;;;;;4949709;29;20525;-69
2022/05/30 15:38:34;;;;;;;4.60;3.77;;;14.50;99.90;;;;;;4955241;28;20472;-69
2022/05/30 15:41:00;;;;;;;2.93;2.73;;;14.50;99.90;;;;;;4953927;28;20600;-69
2022/05/30 15:43:28;;;;;;;2.00;1.80;;;14.60;99.90;;;;;;4954229;28;20477;-68
2022/05/30 15:45:56;;;;;;;1.80;1.80;;;14.60;99.90;;;;;;4954962;28;20680;-68
2022/05/30 15:48:24;;;;;;;1.33;1.33;;;14.70;99.90;;;;;;4954341;28;20597;-68
2022/05/30 15:50:52;;;;;;;1.70;1.60;;;14.60;99.90;;;;;;4944051;28;20493;-69
2022/05/30 15:58:53;;;;;;;1.40;1.40;;;14.60;99.90;;;;;;4954747;29;20568;-68
2022/05/30 16:01:20;;;;;;;7.33;1.60;;;14.60;99.90;;;;;;4951420;28;20492;-69
2022/05/30 16:03:48;;;;;;;1.27;1.27;;;14.60;99.90;;;;;;4953089;28;20464;-68
2022/05/30 16:06:15;;;;;;;1.87;1.77;;;14.60;99.90;;;;;;4953665;29;20469;-68
2022/05/30 16:08:45;;;;;;;1.87;1.80;;;14.50;99.90;;;;;;4954538;28;20536;-69
2022/05/30 16:11:14;;;;;;;1.50;1.37;;;14.50;99.90;;;;;;4953063;28;21020;-68
2022/05/30 16:13:41;;;;;;;2.67;1.23;;;14.60;99.90;;;;;;4953453;28;20591;-68
2022/05/30 16:16:09;;;;;;;1.20;1.20;;;14.50;99.90;;;;;;4952113;28;20526;-68
2022/05/30 16:18:36;;;;;;;1.47;1.37;;;14.40;99.90;;;;;;4951707;28;20519;-68
2022/05/30 16:21:08;;;;;;;2.20;2.10;;;14.40;99.90;;;;;;4942749;28;20492;-67
2022/05/30 16:23:35;;;;;;;1.03;1.03;;;14.40;99.90;;;;;;4950001;28;20536;-68
2022/05/30 16:26:05;;;;;;;1.77;1.30;;;14.50;99.90;;;;;;4972132;23;20501;-69
2022/05/30 16:28:32;;;;;;;1.60;1.50;;;14.40;99.90;;;;;;4943834;28;20560;-69
2022/05/30 16:30:58;;;;;;;1.50;1.50;;;14.40;99.90;;;;;;4949387;28;20516;-69
2022/05/30 16:33:25;;;;;;;2.30;2.30;;;14.40;99.90;;;;;;4953155;28;20511;-69
2022/05/30 16:35:53;;;;;;;1.90;1.80;;;14.40;99.90;;;;;;4951568;28;20494;-69
2022/05/30 16:38:23;;;;;;;1.97;1.80;;;14.40;99.90;;;;;;4944329;28;20950;-69
2022/05/30 16:40:50;;;;;;;3.10;1.87;;;14.50;99.90;;;;;;4945025;28;20532;-69
2022/05/30 16:43:18;;;;;;;2.53;1.73;;;14.50;99.90;;;;;;4965809;28;20459;-69
2022/05/30 16:45:47;;;;;;;1.73;1.63;;;14.60;99.90;;;;;;4941054;28;20484;-69
2022/05/30 16:48:19;;;;;;;2.33;2.23;;;14.60;99.90;;;;;;4945218;28;20839;-70
2022/05/30 16:50:46;;;;;;;5.20;4.90;;;14.60;99.90;;;;;;4957821;28;20530;-68
2022/05/30 16:53:13;;;;;;;2.87;2.77;;;14.70;99.90;;;;;;4956441;28;20566;-68
2022/05/30 16:55:41;;;;;;;2.87;2.67;;;14.70;99.90;;;;;;4943755;28;20485;-69
2022/05/30 16:58:08;;;;;;;3.40;3.20;;;14.70;99.90;;;;;;4950884;28;20518;-69
2022/05/30 17:00:35;;;;;;;5.07;3.00;;;14.70;99.90;;;;;;4945378;28;20611;-69
2022/05/30 17:03:01;;;;;;;2.03;1.93;;;14.70;99.90;;;;;;4952764;28;20512;-69
2022/05/30 17:05:29;;;;;;;1.73;1.60;;;14.70;99.90;;;;;;4958305;28;20519;-69
2022/05/30 17:07:56;;;;;;;1.50;1.50;;;14.80;99.90;;;;;;4953574;28;20469;-69
2022/05/30 17:10:22;;;;;;;3.80;2.50;;;14.80;99.90;;;;;;4948133;28;21020;-67
2022/05/30 17:12:50;;;;;;;3.40;2.37;;;14.70;99.90;;;;;;4955063;28;20492;-69
2022/05/30 17:15:17;;;;;;;2.73;1.97;;;14.60;99.90;;;;;;4946641;28;20588;-69
2022/05/30 17:17:44;;;;;;;2.40;2.30;;;14.60;99.90;;;;;;4937074;28;20561;-69
2022/05/30 17:20:18;;;;;;;1.50;1.50;;;14.60;99.90;;;;;;4962041;28;20464;-68
2022/05/30 17:22:45;;;;;;;2.47;2.37;;;14.60;99.90;;;;;;4961697;28;20499;-69
2022/05/30 17:25:12;;;;;;;3.10;3.00;;;14.60;99.90;;;;;;4957991;28;20464;-68
2022/05/30 17:30:24;;;;;;;3.37;3.20;;;14.70;99.90;;;;;;4939797;28;20460;-68
2022/05/30 17:32:51;;;;;;;3.67;3.47;;;14.60;99.90;;;;;;4953770;28;20956;-68
2022/05/30 17:35:18;;;;;;;4.70;4.40;;;14.60;99.90;;;;;;4948040;28;20737;-68
2022/05/30 17:37:45;;;;;;;5.90;5.47;;;14.50;99.90;;;;;;4948614;28;20949;-69
2022/05/30 17:40:12;;;;;;;14.17;12.73;;;14.50;99.90;;;;;;4953591;28;20469;-69